24hr Temperature Data

Temp.
(°C)
Wind Chill
(°C)
Dew Point
(°C)
Solar Hours
(hh:mm)
Solar Radiation
(w/m2)
Min
16.8 16.8 -110.3 00:00 0.0
Max
22.8 23.8 -109.7 00:00 0.0
Range
6 7 0.59999999999999 n/a 0
Mode
19.0 17.4 -110.1 00:00 0.0
Median
19.0 19.4 -110.1 00:00 0.0
Mean
18.8 19.4 -110.1 n/a 0
Std. Dev
1.5 1.6 2.9 n/a 0
Temp.
(°C)
Wind Chill
(°C)
Dew Point
(°C)
Solar Hours
(hh:mm)
Solar Radiation
(w/m2)
14/08 15:10 22.4 23.4 -109.8 00:00 0.0
14/08 15:09 22.4 23.4 -109.8 00:00 0.0
14/08 15:08 22.4 23.3 -109.8 00:00 0.0
14/08 15:06 22.6 23.6 -109.7 00:00 0.0
14/08 15:05 22.6 23.6 -109.7 00:00 0.0
14/08 15:04 22.6 23.6 -109.7 00:00 0.0
14/08 15:03 22.6 23.6 -109.7 00:00 0.0
14/08 15:02 22.6 23.6 -109.7 00:00 0.0
14/08 15:00 22.8 23.8 -109.7 00:00 0.0
14/08 14:58 22.6 23.6 -109.7 00:00 0.0
14/08 14:57 22.4 23.3 -109.8 00:00 0.0
14/08 14:56 22.2 23.1 -109.8 00:00 0.0
14/08 14:55 22.2 23.1 -109.8 00:00 0.0
14/08 14:54 22.0 22.8 -109.8 00:00 0.0
14/08 14:53 22.2 23.1 -109.8 00:00 0.0
14/08 14:52 22.2 23.1 -109.8 00:00 0.0
14/08 14:51 22.2 23.1 -109.8 00:00 0.0
14/08 14:50 22.4 23.3 -109.8 00:00 0.0
14/08 14:48 22.6 23.6 -109.7 00:00 0.0
14/08 14:47 22.6 23.6 -109.7 00:00 0.0
14/08 14:46 22.2 23.1 -109.8 00:00 0.0
14/08 14:45 22.0 22.8 -109.8 00:00 0.0
14/08 14:44 21.8 22.6 -109.8 00:00 0.0
14/08 14:43 22.0 22.8 -109.8 00:00 0.0
14/08 14:42 22.0 22.8 -109.8 00:00 0.0
14/08 14:40 21.8 22.6 -109.8 00:00 0.0
14/08 14:39 21.8 22.6 -109.8 00:00 0.0
14/08 14:38 21.8 22.6 -109.8 00:00 0.0
14/08 14:37 21.8 22.6 -109.8 00:00 0.0
14/08 14:36 21.6 22.4 -109.8 00:00 0.0
14/08 14:35 21.6 22.4 -109.8 00:00 0.0
14/08 14:34 21.8 22.7 -109.8 00:00 0.0
14/08 14:32 21.6 22.5 -109.8 00:00 0.0
14/08 14:31 21.8 22.7 -109.8 00:00 0.0
14/08 14:30 21.8 22.7 -109.8 00:00 0.0
14/08 14:28 21.8 22.7 -109.8 00:00 0.0
14/08 14:26 21.6 22.4 -109.8 00:00 0.0
14/08 14:25 21.4 22.1 -109.9 00:00 0.0
14/08 14:24 21.4 22.1 -109.9 00:00 0.0
14/08 14:23 21.2 21.9 -109.9 00:00 0.0
14/08 14:22 21.2 21.9 -109.9 00:00 0.0
14/08 14:21 21.2 21.9 -109.9 00:00 0.0
14/08 14:20 21.2 21.9 -109.9 00:00 0.0
14/08 14:19 21.2 21.9 -109.9 00:00 0.0
14/08 14:18 21.4 22.1 -109.9 00:00 0.0
14/08 14:17 21.4 22.1 -109.9 00:00 0.0
14/08 14:16 21.6 22.4 -109.8 00:00 0.0
14/08 14:15 21.4 22.2 -109.9 00:00 0.0
14/08 14:14 21.2 22 -109.9 00:00 0.0
14/08 14:13 21.2 22 -109.9 00:00 0.0
14/08 14:12 21.4 22.2 -109.9 00:00 0.0
14/08 14:11 21.6 22.5 -109.8 00:00 0.0
14/08 14:10 21.8 22.7 -109.8 00:00 0.0
14/08 14:09 21.8 22.7 -109.8 00:00 0.0
14/08 14:08 21.8 22.7 -109.8 00:00 0.0
14/08 14:07 22.0 23 -109.8 00:00 0.0
14/08 14:06 21.8 22.7 -109.8 00:00 0.0
14/08 14:05 21.8 22.7 -109.8 00:00 0.0
14/08 14:04 21.8 22.7 -109.8 00:00 0.0
14/08 14:02 21.8 22.7 -109.8 00:00 0.0
14/08 14:01 21.8 22.7 -109.8 00:00 0.0
14/08 14:00 22.0 22.9 -109.8 00:00 0.0
14/08 13:59 22.0 22.9 -109.8 00:00 0.0
14/08 13:58 22.0 23 -109.8 00:00 0.0
14/08 13:57 22.0 23 -109.8 00:00 0.0
14/08 13:56 22.0 23 -109.8 00:00 0.0
14/08 13:55 22.0 22.9 -109.8 00:00 0.0
14/08 13:54 22.0 22.9 -109.8 00:00 0.0
14/08 13:53 22.2 23.1 -109.8 00:00 0.0
14/08 13:52 22.0 22.9 -109.8 00:00 0.0
14/08 13:51 22.0 22.9 -109.8 00:00 0.0
14/08 13:50 21.8 22.6 -109.8 00:00 0.0
14/08 13:49 21.6 22.4 -109.8 00:00 0.0
14/08 13:48 21.4 22.1 -109.9 00:00 0.0
14/08 13:46 21.2 21.9 -109.9 00:00 0.0
14/08 13:44 21.2 21.9 -109.9 00:00 0.0
14/08 13:43 21.4 22.2 -109.9 00:00 0.0
14/08 13:42 21.6 22.4 -109.8 00:00 0.0
14/08 13:41 21.8 22.7 -109.8 00:00 0.0
14/08 13:40 21.8 22.7 -109.8 00:00 0.0
14/08 13:38 21.8 22.7 -109.8 00:00 0.0
14/08 13:37 21.8 22.7 -109.8 00:00 0.0
14/08 13:36 21.8 22.6 -109.8 00:00 0.0
14/08 13:35 21.8 22.6 -109.8 00:00 0.0
14/08 13:34 21.6 22.4 -109.8 00:00 0.0
14/08 13:32 21.6 22.4 -109.8 00:00 0.0
14/08 13:30 21.8 22.7 -109.8 00:00 0.0
14/08 13:29 21.8 22.8 -109.8 00:00 0.0
14/08 13:28 21.8 22.8 -109.8 00:00 0.0
14/08 13:27 21.8 22.8 -109.8 00:00 0.0
14/08 13:26 21.8 22.8 -109.8 00:00 0.0
14/08 13:25 21.8 22.8 -109.8 00:00 0.0
14/08 13:24 21.8 22.8 -109.8 00:00 0.0
14/08 13:23 21.8 22.8 -109.8 00:00 0.0
14/08 13:22 21.8 22.8 -109.8 00:00 0.0
14/08 13:21 21.6 22.5 -109.8 00:00 0.0
14/08 13:20 21.6 22.5 -109.8 00:00 0.0
14/08 13:19 21.8 22.8 -109.8 00:00 0.0
14/08 13:18 22.0 23 -109.8 00:00 0.0
14/08 13:16 21.8 22.8 -109.8 00:00 0.0
14/08 13:14 22.0 23 -109.8 00:00 0.0
14/08 13:13 22.0 23 -109.8 00:00 0.0
14/08 13:12 22.0 23.1 -109.8 00:00 0.0
14/08 13:11 22.0 23.1 -109.8 00:00 0.0
14/08 13:10 21.8 22.8 -109.8 00:00 0.0
14/08 13:09 21.8 22.8 -109.8 00:00 0.0
14/08 13:08 21.8 22.7 -109.8 00:00 0.0
14/08 13:07 21.8 22.7 -109.8 00:00 0.0
14/08 13:06 21.6 22.5 -109.8 00:00 0.0
14/08 13:04 21.4 22.2 -109.9 00:00 0.0
14/08 13:03 21.2 21.9 -109.9 00:00 0.0
14/08 13:02 21.0 21.6 -109.9 00:00 0.0
14/08 13:00 20.8 21.4 -109.9 00:00 0.0
14/08 12:58 21.0 21.6 -109.9 00:00 0.0
14/08 12:57 21.0 21.7 -109.9 00:00 0.0
14/08 12:56 21.0 21.7 -109.9 00:00 0.0
14/08 12:55 21.2 21.9 -109.9 00:00 0.0
14/08 12:54 21.4 22.2 -109.9 00:00 0.0
14/08 12:53 21.4 22.2 -109.9 00:00 0.0
14/08 12:52 21.6 22.5 -109.8 00:00 0.0
14/08 12:50 21.4 22.2 -109.9 00:00 0.0
14/08 12:49 21.2 21.9 -109.9 00:00 0.0
14/08 12:48 21.2 21.8 -109.9 00:00 0.0
14/08 12:47 21.2 21.9 -109.9 00:00 0.0
14/08 12:46 21.0 21.6 -109.9 00:00 0.0
14/08 12:45 21.2 21.8 -109.9 00:00 0.0
14/08 12:44 21.2 21.8 -109.9 00:00 0.0
14/08 12:43 21.2 21.9 -109.9 00:00 0.0
14/08 12:41 20.8 21.3 -109.9 00:00 0.0
14/08 12:39 21.2 21.9 -109.9 00:00 0.0
14/08 12:38 21.0 21.6 -109.9 00:00 0.0
14/08 12:37 20.8 21.4 -109.9 00:00 0.0
14/08 12:36 20.8 21.4 -109.9 00:00 0.0
14/08 12:35 20.6 21.1 -109.9 00:00 0.0
14/08 12:33 20.4 20.8 -110 00:00 0.0
14/08 12:31 20.6 21.1 -109.9 00:00 0.0
14/08 12:29 20.4 20.8 -110 00:00 0.0
14/08 12:28 20.4 20.8 -110 00:00 0.0
14/08 12:27 20.6 21.1 -109.9 00:00 0.0
14/08 12:26 20.6 21.1 -109.9 00:00 0.0
14/08 12:25 20.6 21.1 -109.9 00:00 0.0
14/08 12:24 20.6 21.1 -109.9 00:00 0.0
14/08 12:23 20.6 21.1 -109.9 00:00 0.0
14/08 12:22 20.6 21.1 -109.9 00:00 0.0
14/08 12:21 20.6 21.1 -109.9 00:00 0.0
14/08 12:20 20.6 21.1 -109.9 00:00 0.0
14/08 12:19 20.4 20.9 -110 00:00 0.0
14/08 12:18 20.4 20.9 -110 00:00 0.0
14/08 12:17 20.6 21.2 -109.9 00:00 0.0
14/08 12:15 20.6 21.1 -109.9 00:00 0.0
14/08 12:14 20.6 21.1 -109.9 00:00 0.0
14/08 12:13 20.4 20.8 -110 00:00 0.0
14/08 12:12 20.6 21.1 -109.9 00:00 0.0
14/08 12:11 20.4 20.9 -110 00:00 0.0
14/08 12:10 20.4 20.9 -110 00:00 0.0
14/08 12:09 20.2 20.6 -110 00:00 0.0
14/08 12:08 20.2 20.6 -110 00:00 0.0
14/08 12:07 20.2 20.6 -110 00:00 0.0
14/08 12:06 20.2 20.6 -110 00:00 0.0
14/08 12:05 20.2 20.5 -110 00:00 0.0
14/08 12:04 20.2 20.6 -110 00:00 0.0
14/08 12:02 20.2 20.5 -110 00:00 0.0
14/08 12:00 20.2 20.5 -110 00:00 0.0
14/08 11:58 20.4 20.8 -110 00:00 0.0
14/08 11:57 20.4 20.8 -110 00:00 0.0
14/08 11:56 20.4 20.8 -110 00:00 0.0
14/08 11:55 20.6 21.1 -109.9 00:00 0.0
14/08 11:54 20.6 21.1 -109.9 00:00 0.0
14/08 11:53 20.6 21.1 -109.9 00:00 0.0
14/08 11:52 20.6 21.1 -109.9 00:00 0.0
14/08 11:50 20.8 21.4 -109.9 00:00 0.0
14/08 11:48 20.8 21.5 -109.9 00:00 0.0
14/08 11:47 21.0 21.7 -109.9 00:00 0.0
14/08 11:46 21.0 21.7 -109.9 00:00 0.0
14/08 11:45 20.8 21.5 -109.9 00:00 0.0
14/08 11:44 20.8 21.5 -109.9 00:00 0.0
14/08 11:43 20.6 21.3 -109.9 00:00 0.0
14/08 11:42 20.4 21.1 -110 00:00 0.0
14/08 11:40 20.4 21.1 -110 00:00 0.0
14/08 11:39 20.4 21.1 -110 00:00 0.0
14/08 11:38 20.6 21.3 -109.9 00:00 0.0
14/08 11:37 20.4 21.1 -110 00:00 0.0
14/08 11:36 20.6 21.3 -109.9 00:00 0.0
14/08 11:34 20.4 21.1 -110 00:00 0.0
14/08 11:33 20.4 21 -110 00:00 0.0
14/08 11:32 20.4 21 -110 00:00 0.0
14/08 11:31 20.4 21 -110 00:00 0.0
14/08 11:30 20.4 21 -110 00:00 0.0
14/08 11:29 20.4 21 -110 00:00 0.0
14/08 11:28 20.2 20.7 -110 00:00 0.0
14/08 11:27 20.2 20.7 -110 00:00 0.0
14/08 11:26 20.2 20.7 -110 00:00 0.0
14/08 11:25 20.2 20.7 -110 00:00 0.0
14/08 11:24 20.4 21 -110 00:00 0.0
14/08 11:23 20.4 21 -110 00:00 0.0
14/08 11:22 20.4 21 -110 00:00 0.0
14/08 11:21 20.4 21 -110 00:00 0.0
14/08 11:20 20.2 20.8 -110 00:00 0.0
14/08 11:19 20.4 21 -110 00:00 0.0
14/08 11:18 20.4 21 -110 00:00 0.0
14/08 11:17 20.4 21 -110 00:00 0.0
14/08 11:16 20.4 20.9 -110 00:00 0.0
14/08 11:15 20.6 21.2 -109.9 00:00 0.0
14/08 11:14 20.6 21.1 -109.9 00:00 0.0
14/08 11:13 20.6 21.1 -109.9 00:00 0.0
14/08 11:12 20.4 20.8 -110 00:00 0.0
14/08 11:10 20.6 21 -109.9 00:00 0.0
14/08 11:09 20.6 21.1 -109.9 00:00 0.0
14/08 11:08 20.6 21.1 -109.9 00:00 0.0
14/08 11:07 20.6 21.1 -109.9 00:00 0.0
14/08 11:06 20.8 21.4 -109.9 00:00 0.0
14/08 11:05 20.6 21.1 -109.9 00:00 0.0
14/08 11:04 20.4 20.9 -110 00:00 0.0
14/08 11:03 20.4 20.9 -110 00:00 0.0
14/08 11:02 20.6 21.2 -109.9 00:00 0.0
14/08 11:00 20.4 21 -110 00:00 0.0
14/08 10:59 20.2 20.7 -110 00:00 0.0
14/08 10:58 20.2 20.8 -110 00:00 0.0
14/08 10:57 20.0 20.6 -110 00:00 0.0
14/08 10:56 20.2 20.8 -110 00:00 0.0
14/08 10:55 20.2 20.9 -110 00:00 0.0
14/08 10:54 20.4 21.2 -110 00:00 0.0
14/08 10:52 20.2 21 -110 00:00 0.0
14/08 10:50 20.2 21.1 -110 00:00 0.0
14/08 10:49 20.2 21.1 -110 00:00 0.0
14/08 10:48 20.4 21.3 -110 00:00 0.0
14/08 10:47 20.6 21.6 -109.9 00:00 0.0
14/08 10:46 20.8 21.8 -109.9 00:00 0.0
14/08 10:45 20.8 21.8 -109.9 00:00 0.0
14/08 10:44 20.6 21.6 -109.9 00:00 0.0
14/08 10:43 20.6 21.5 -109.9 00:00 0.0
14/08 10:42 20.6 21.5 -109.9 00:00 0.0
14/08 10:41 20.6 21.5 -109.9 00:00 0.0
14/08 10:40 20.6 21.4 -109.9 00:00 0.0
14/08 10:39 20.4 21.2 -110 00:00 0.0
14/08 10:38 20.4 21.2 -110 00:00 0.0
14/08 10:36 20.0 20.7 -110 00:00 0.0
14/08 10:35 20.2 20.9 -110 00:00 0.0
14/08 10:34 20.2 20.9 -110 00:00 0.0
14/08 10:33 20.0 20.6 -110 00:00 0.0
14/08 10:32 20.0 20.6 -110 00:00 0.0
14/08 10:31 20.0 20.6 -110 00:00 0.0
14/08 10:30 20.0 20.6 -110 00:00 0.0
14/08 10:29 19.8 20.4 -110 00:00 0.0
14/08 10:28 19.8 20.4 -110 00:00 0.0
14/08 10:27 19.8 20.4 -110 00:00 0.0
14/08 10:26 19.8 20.4 -110 00:00 0.0
14/08 10:25 19.8 20.4 -110 00:00 0.0
14/08 10:24 19.8 20.5 -110 00:00 0.0
14/08 10:23 19.8 20.5 -110 00:00 0.0
14/08 10:22 19.6 20.2 -110 00:00 0.0
14/08 10:21 19.6 20.2 -110 00:00 0.0
14/08 10:20 19.6 20.1 -110 00:00 0.0
14/08 10:19 19.6 20.1 -110 00:00 0.0
14/08 10:18 19.4 19.8 -110.1 00:00 0.0
14/08 10:17 19.4 19.7 -110.1 00:00 0.0
14/08 10:16 19.4 19.7 -110.1 00:00 0.0
14/08 10:15 19.2 19.4 -110.1 00:00 0.0
14/08 10:14 19.2 19.4 -110.1 00:00 0.0
14/08 10:13 19.2 19.3 -110.1 00:00 0.0
14/08 10:12 19.2 19.4 -110.1 00:00 0.0
14/08 10:11 19.2 19.4 -110.1 00:00 0.0
14/08 10:10 19.2 19.5 -110.1 00:00 0.0
14/08 10:09 19.2 19.6 -110.1 00:00 0.0
14/08 10:07 19.4 19.9 -110.1 00:00 0.0
14/08 10:06 19.4 19.9 -110.1 00:00 0.0
14/08 10:05 19.4 19.9 -110.1 00:00 0.0
14/08 10:04 19.6 20.2 -110 00:00 0.0
14/08 10:03 19.6 20.2 -110 00:00 0.0
14/08 10:02 19.6 20.2 -110 00:00 0.0
14/08 10:01 19.4 19.9 -110.1 00:00 0.0
14/08 09:59 19.4 19.8 -110.1 00:00 0.0
14/08 09:58 19.4 19.8 -110.1 00:00 0.0
14/08 09:57 19.4 19.7 -110.1 00:00 0.0
14/08 09:56 19.4 19.7 -110.1 00:00 0.0
14/08 09:55 19.4 19.7 -110.1 00:00 0.0
14/08 09:54 19.2 19.5 -110.1 00:00 0.0
14/08 09:53 19.2 19.5 -110.1 00:00 0.0
14/08 09:51 19.2 19.5 -110.1 00:00 0.0
14/08 09:49 19.2 19.6 -110.1 00:00 0.0
14/08 09:48 19.4 19.9 -110.1 00:00 0.0
14/08 09:47 19.4 20 -110.1 00:00 0.0
14/08 09:46 19.4 20 -110.1 00:00 0.0
14/08 09:45 19.4 20 -110.1 00:00 0.0
14/08 09:44 19.2 19.8 -110.1 00:00 0.0
14/08 09:43 19.2 19.8 -110.1 00:00 0.0
14/08 09:41 19.2 19.7 -110.1 00:00 0.0
14/08 09:39 19.2 19.6 -110.1 00:00 0.0
14/08 09:38 19.2 19.5 -110.1 00:00 0.0
14/08 09:37 19.2 19.5 -110.1 00:00 0.0
14/08 09:35 19.0 19.2 -110.1 00:00 0.0
14/08 09:34 19.0 19.2 -110.1 00:00 0.0
14/08 09:33 18.8 18.9 -110.1 00:00 0.0
14/08 09:32 18.8 18.9 -110.1 00:00 0.0
14/08 09:30 18.8 19 -110.1 00:00 0.0
14/08 09:29 18.8 19 -110.1 00:00 0.0
14/08 09:28 18.8 19 -110.1 00:00 0.0
14/08 09:27 19.0 19.2 -110.1 00:00 0.0
14/08 09:25 19.0 19.2 -110.1 00:00 0.0
14/08 09:24 19.0 19.1 -110.1 00:00 0.0
14/08 09:23 19.0 19.1 -110.1 00:00 0.0
14/08 09:22 19.0 19.1 -110.1 00:00 0.0
14/08 09:21 19.0 19.1 -110.1 00:00 0.0
14/08 09:20 18.8 18.8 -110.1 00:00 0.0
14/08 09:19 18.8 18.9 -110.1 00:00 0.0
14/08 09:17 18.8 18.9 -110.1 00:00 0.0
14/08 09:16 18.8 19 -110.1 00:00 0.0
14/08 09:15 19.0 19.2 -110.1 00:00 0.0
14/08 09:14 19.0 19.2 -110.1 00:00 0.0
14/08 09:13 19.0 19.2 -110.1 00:00 0.0
14/08 09:12 19.0 19.2 -110.1 00:00 0.0
14/08 09:11 19.2 19.5 -110.1 00:00 0.0
14/08 09:09 19.2 19.5 -110.1 00:00 0.0
14/08 09:08 19.2 19.4 -110.1 00:00 0.0
14/08 09:07 19.2 19.3 -110.1 00:00 0.0
14/08 09:06 19.2 19.3 -110.1 00:00 0.0
14/08 09:05 19.2 19.3 -110.1 00:00 0.0
14/08 09:03 19.2 19.3 -110.1 00:00 0.0
14/08 09:02 19.2 19.4 -110.1 00:00 0.0
14/08 09:01 19.2 19.4 -110.1 00:00 0.0
14/08 09:00 19.0 19.1 -110.1 00:00 0.0
14/08 08:59 19.0 19.1 -110.1 00:00 0.0
14/08 08:58 19.0 19.2 -110.1 00:00 0.0
14/08 08:57 19.0 19.2 -110.1 00:00 0.0
14/08 08:56 19.0 19.2 -110.1 00:00 0.0
14/08 08:55 19.0 19.3 -110.1 00:00 0.0
14/08 08:54 18.8 19 -110.1 00:00 0.0
14/08 08:53 19.0 19.3 -110.1 00:00 0.0
14/08 08:52 19.0 19.3 -110.1 00:00 0.0
14/08 08:51 18.8 19 -110.1 00:00 0.0
14/08 08:50 18.8 19 -110.1 00:00 0.0
14/08 08:49 18.6 18.8 -110.1 00:00 0.0
14/08 08:48 18.6 18.8 -110.1 00:00 0.0
14/08 08:47 18.6 18.9 -110.1 00:00 0.0
14/08 08:46 18.6 18.8 -110.1 00:00 0.0
14/08 08:45 18.6 18.8 -110.1 00:00 0.0
14/08 08:43 18.4 18.6 -110.2 00:00 0.0
14/08 08:42 18.4 18.6 -110.2 00:00 0.0
14/08 08:40 18.2 18.3 -110.2 00:00 0.0
14/08 08:39 18.0 18 -110.2 00:00 0.0
14/08 08:37 17.8 17.7 -110.2 00:00 0.0
14/08 08:36 17.6 17.5 -110.2 00:00 0.0
14/08 08:35 17.6 17.5 -110.2 00:00 0.0
14/08 08:34 17.6 17.4 -110.2 00:00 0.0
14/08 08:33 17.6 17.4 -110.2 00:00 0.0
14/08 08:32 17.6 17.4 -110.2 00:00 0.0
14/08 08:31 17.8 17.7 -110.2 00:00 0.0
14/08 08:30 18.2 18.2 -110.2 00:00 0.0
14/08 08:29 18.4 18.5 -110.2 00:00 0.0
14/08 08:28 18.8 19 -110.1 00:00 0.0
14/08 08:27 18.8 19 -110.1 00:00 0.0
14/08 08:26 18.8 19 -110.1 00:00 0.0
14/08 08:25 19.0 19.3 -110.1 00:00 0.0
14/08 08:24 19.0 19.3 -110.1 00:00 0.0
14/08 08:23 19.0 19.4 -110.1 00:00 0.0
14/08 08:22 19.2 19.6 -110.1 00:00 0.0
14/08 08:21 19.2 19.7 -110.1 00:00 0.0
14/08 08:20 19.2 19.8 -110.1 00:00 0.0
14/08 08:19 19.2 19.8 -110.1 00:00 0.0
14/08 08:18 19.2 19.8 -110.1 00:00 0.0
14/08 08:17 19.2 19.8 -110.1 00:00 0.0
14/08 08:16 19.2 19.8 -110.1 00:00 0.0
14/08 08:15 19.0 19.6 -110.1 00:00 0.0
14/08 08:14 19.0 19.6 -110.1 00:00 0.0
14/08 08:13 19.2 19.8 -110.1 00:00 0.0
14/08 08:11 19.0 19.5 -110.1 00:00 0.0
14/08 08:09 19.0 19.5 -110.1 00:00 0.0
14/08 08:08 19.0 19.5 -110.1 00:00 0.0
14/08 08:07 19.0 19.5 -110.1 00:00 0.0
14/08 08:06 19.0 19.5 -110.1 00:00 0.0
14/08 08:05 19.0 19.6 -110.1 00:00 0.0
14/08 08:04 19.0 19.6 -110.1 00:00 0.0
14/08 08:03 19.0 19.5 -110.1 00:00 0.0
14/08 08:02 18.8 19.3 -110.1 00:00 0.0
14/08 08:01 18.8 19.3 -110.1 00:00 0.0
14/08 08:00 18.8 19.3 -110.1 00:00 0.0
14/08 07:59 18.8 19.3 -110.1 00:00 0.0
14/08 07:58 18.8 19.2 -110.1 00:00 0.0
14/08 07:57 18.8 19.2 -110.1 00:00 0.0
14/08 07:55 18.8 19.2 -110.1 00:00 0.0
14/08 07:54 18.8 19.2 -110.1 00:00 0.0
14/08 07:53 18.8 19.2 -110.1 00:00 0.0
14/08 07:52 18.8 19.2 -110.1 00:00 0.0
14/08 07:51 18.8 19.2 -110.1 00:00 0.0
14/08 07:50 18.8 19.2 -110.1 00:00 0.0
14/08 07:49 18.8 19.3 -110.1 00:00 0.0
14/08 07:48 18.8 19.3 -110.1 00:00 0.0
14/08 07:47 18.8 19.3 -110.1 00:00 0.0
14/08 07:46 18.8 19.3 -110.1 00:00 0.0
14/08 07:45 18.8 19.3 -110.1 00:00 0.0
14/08 07:44 19.0 19.5 -110.1 00:00 0.0
14/08 07:43 18.8 19.3 -110.1 00:00 0.0
14/08 07:41 18.8 19.3 -110.1 00:00 0.0
14/08 07:39 18.8 19.3 -110.1 00:00 0.0
14/08 07:38 18.8 19.3 -110.1 00:00 0.0
14/08 07:37 18.8 19.3 -110.1 00:00 0.0
14/08 07:36 18.8 19.3 -110.1 00:00 0.0
14/08 07:35 18.8 19.3 -110.1 00:00 0.0
14/08 07:34 18.8 19.3 -110.1 00:00 0.0
14/08 07:33 18.8 19.3 -110.1 00:00 0.0
14/08 07:32 18.8 19.3 -110.1 00:00 0.0
14/08 07:31 18.8 19.3 -110.1 00:00 0.0
14/08 07:29 18.8 19.3 -110.1 00:00 0.0
14/08 07:28 18.8 19.3 -110.1 00:00 0.0
14/08 07:27 18.8 19.3 -110.1 00:00 0.0
14/08 07:26 18.6 19.1 -110.1 00:00 0.0
14/08 07:25 18.6 19.1 -110.1 00:00 0.0
14/08 07:24 18.6 19.1 -110.1 00:00 0.0
14/08 07:23 18.6 19.1 -110.1 00:00 0.0
14/08 07:21 18.6 19.1 -110.1 00:00 0.0
14/08 07:20 18.4 18.9 -110.2 00:00 0.0
14/08 07:19 18.6 19.1 -110.1 00:00 0.0
14/08 07:18 18.6 19.1 -110.1 00:00 0.0
14/08 07:17 18.4 18.9 -110.2 00:00 0.0
14/08 07:16 18.6 19.1 -110.1 00:00 0.0
14/08 07:15 18.6 19.1 -110.1 00:00 0.0
14/08 07:13 18.4 18.9 -110.2 00:00 0.0
14/08 07:12 18.4 18.9 -110.2 00:00 0.0
14/08 07:11 18.4 18.9 -110.2 00:00 0.0
14/08 07:10 18.4 18.9 -110.2 00:00 0.0
14/08 07:09 18.4 18.9 -110.2 00:00 0.0
14/08 07:08 18.4 18.9 -110.2 00:00 0.0
14/08 07:07 18.4 18.9 -110.2 00:00 0.0
14/08 07:05 18.4 18.9 -110.2 00:00 0.0
14/08 07:04 18.4 18.9 -110.2 00:00 0.0
14/08 07:03 18.4 18.9 -110.2 00:00 0.0
14/08 07:02 18.4 18.9 -110.2 00:00 0.0
14/08 07:01 18.2 18.7 -110.2 00:00 0.0
14/08 07:00 18.2 18.6 -110.2 00:00 0.0
14/08 06:59 18.2 18.6 -110.2 00:00 0.0
14/08 06:58 18.2 18.7 -110.2 00:00 0.0
14/08 06:57 18.2 18.7 -110.2 00:00 0.0
14/08 06:56 18.2 18.7 -110.2 00:00 0.0
14/08 06:55 18.2 18.7 -110.2 00:00 0.0
14/08 06:54 18.2 18.7 -110.2 00:00 0.0
14/08 06:53 18.0 18.5 -110.2 00:00 0.0
14/08 06:52 18.0 18.5 -110.2 00:00 0.0
14/08 06:51 18.0 18.5 -110.2 00:00 0.0
14/08 06:50 18.0 18.5 -110.2 00:00 0.0
14/08 06:49 18.0 18.5 -110.2 00:00 0.0
14/08 06:48 18.0 18.5 -110.2 00:00 0.0
14/08 06:47 18.0 18.5 -110.2 00:00 0.0
14/08 06:46 18.0 18.5 -110.2 00:00 0.0
14/08 06:45 18.0 18.5 -110.2 00:00 0.0
14/08 06:44 18.0 18.5 -110.2 00:00 0.0
14/08 06:42 18.0 18.5 -110.2 00:00 0.0
14/08 06:40 18.0 18.6 -110.2 00:00 0.0
14/08 06:39 17.8 18.3 -110.2 00:00 0.0
14/08 06:38 17.8 18.4 -110.2 00:00 0.0
14/08 06:37 17.8 18.4 -110.2 00:00 0.0
14/08 06:36 18.0 18.7 -110.2 00:00 0.0
14/08 06:35 18.0 18.7 -110.2 00:00 0.0
14/08 06:34 18.0 18.7 -110.2 00:00 0.0
14/08 06:33 18.0 18.7 -110.2 00:00 0.0
14/08 06:32 18.0 18.7 -110.2 00:00 0.0
14/08 06:30 18.0 18.8 -110.2 00:00 0.0
14/08 06:29 18.0 18.8 -110.2 00:00 0.0
14/08 06:28 18.0 18.7 -110.2 00:00 0.0
14/08 06:27 18.0 18.8 -110.2 00:00 0.0
14/08 06:26 18.0 18.7 -110.2 00:00 0.0
14/08 06:25 18.0 18.7 -110.2 00:00 0.0
14/08 06:24 18.0 18.7 -110.2 00:00 0.0
14/08 06:23 17.8 18.5 -110.2 00:00 0.0
14/08 06:22 17.8 18.5 -110.2 00:00 0.0
14/08 06:21 18.0 18.6 -110.2 00:00 0.0
14/08 06:20 18.0 18.6 -110.2 00:00 0.0
14/08 06:19 18.0 18.6 -110.2 00:00 0.0
14/08 06:18 18.0 18.6 -110.2 00:00 0.0
14/08 06:17 18.0 18.6 -110.2 00:00 0.0
14/08 06:16 18.0 18.7 -110.2 00:00 0.0
14/08 06:15 18.0 18.7 -110.2 00:00 0.0
14/08 06:14 18.0 18.7 -110.2 00:00 0.0
14/08 06:13 18.0 18.7 -110.2 00:00 0.0
14/08 06:12 18.0 18.8 -110.2 00:00 0.0
14/08 06:11 18.0 18.9 -110.2 00:00 0.0
14/08 06:10 18.0 18.9 -110.2 00:00 0.0
14/08 06:09 18.0 18.9 -110.2 00:00 0.0
14/08 06:08 18.0 19 -110.2 00:00 0.0
14/08 06:07 18.0 18.9 -110.2 00:00 0.0
14/08 06:05 18.0 18.9 -110.2 00:00 0.0
14/08 06:04 17.8 18.6 -110.2 00:00 0.0
14/08 06:03 17.8 18.6 -110.2 00:00 0.0
14/08 06:02 17.8 18.6 -110.2 00:00 0.0
14/08 06:01 17.8 18.6 -110.2 00:00 0.0
14/08 06:00 17.8 18.6 -110.2 00:00 0.0
14/08 05:59 17.8 18.6 -110.2 00:00 0.0
14/08 05:58 17.8 18.6 -110.2 00:00 0.0
14/08 05:57 17.8 18.6 -110.2 00:00 0.0
14/08 05:56 17.8 18.5 -110.2 00:00 0.0
14/08 05:55 17.8 18.5 -110.2 00:00 0.0
14/08 05:54 17.8 18.5 -110.2 00:00 0.0
14/08 05:53 17.8 18.5 -110.2 00:00 0.0
14/08 05:52 17.6 18.3 -110.2 00:00 0.0
14/08 05:51 17.6 18.3 -110.2 00:00 0.0
14/08 05:50 17.6 18.3 -110.2 00:00 0.0
14/08 05:49 17.6 18.3 -110.2 00:00 0.0
14/08 05:48 17.6 18.2 -110.2 00:00 0.0
14/08 05:47 17.6 18.3 -110.2 00:00 0.0
14/08 05:46 17.6 18.3 -110.2 00:00 0.0
14/08 05:45 17.6 18.3 -110.2 00:00 0.0
14/08 05:44 17.6 18.3 -110.2 00:00 0.0
14/08 05:43 17.6 18.3 -110.2 00:00 0.0
14/08 05:42 17.6 18.3 -110.2 00:00 0.0
14/08 05:41 17.6 18.3 -110.2 00:00 0.0
14/08 05:40 17.4 18.1 -110.3 00:00 0.0
14/08 05:39 17.4 18.1 -110.3 00:00 0.0
14/08 05:38 17.4 18.1 -110.3 00:00 0.0
14/08 05:37 17.4 18.1 -110.3 00:00 0.0
14/08 05:36 17.4 18.1 -110.3 00:00 0.0
14/08 05:35 17.4 18.1 -110.3 00:00 0.0
14/08 05:34 17.4 18.1 -110.3 00:00 0.0
14/08 05:33 17.4 18.2 -110.3 00:00 0.0
14/08 05:32 17.4 18.2 -110.3 00:00 0.0
14/08 05:31 17.4 18.2 -110.3 00:00 0.0
14/08 05:30 17.2 17.9 -110.3 00:00 0.0
14/08 05:29 17.2 17.9 -110.3 00:00 0.0
14/08 05:28 17.2 17.9 -110.3 00:00 0.0
14/08 05:27 17.2 17.9 -110.3 00:00 0.0
14/08 05:26 17.2 18 -110.3 00:00 0.0
14/08 05:25 17.2 18 -110.3 00:00 0.0
14/08 05:24 17.2 18 -110.3 00:00 0.0
14/08 05:23 17.2 18 -110.3 00:00 0.0
14/08 05:22 17.0 17.8 -110.3 00:00 0.0
14/08 05:21 17.2 18 -110.3 00:00 0.0
14/08 05:20 17.2 18.1 -110.3 00:00 0.0
14/08 05:19 17.2 18.1 -110.3 00:00 0.0
14/08 05:18 17.2 18.1 -110.3 00:00 0.0
14/08 05:17 17.2 18.1 -110.3 00:00 0.0
14/08 05:16 17.2 18.2 -110.3 00:00 0.0
14/08 05:15 17.2 18.1 -110.3 00:00 0.0
14/08 05:14 17.0 17.9 -110.3 00:00 0.0
14/08 05:13 17.2 18.1 -110.3 00:00 0.0
14/08 05:12 17.0 17.8 -110.3 00:00 0.0
14/08 05:11 17.0 17.8 -110.3 00:00 0.0
14/08 05:09 17.0 17.8 -110.3 00:00 0.0
14/08 05:08 17.2 18 -110.3 00:00 0.0
14/08 05:07 17.0 17.7 -110.3 00:00 0.0
14/08 05:06 17.0 17.7 -110.3 00:00 0.0
14/08 05:05 17.0 17.8 -110.3 00:00 0.0
14/08 05:04 17.0 17.8 -110.3 00:00 0.0
14/08 05:03 17.0 17.8 -110.3 00:00 0.0
14/08 05:02 17.0 17.9 -110.3 00:00 0.0
14/08 05:01 17.0 17.9 -110.3 00:00 0.0
14/08 05:00 17.0 17.8 -110.3 00:00 0.0
14/08 04:59 17.0 17.8 -110.3 00:00 0.0
14/08 04:58 17.0 17.8 -110.3 00:00 0.0
14/08 04:57 17.0 17.9 -110.3 00:00 0.0
14/08 04:56 16.8 17.7 -110.3 00:00 0.0
14/08 04:55 17.0 17.9 -110.3 00:00 0.0
14/08 04:54 17.0 17.9 -110.3 00:00 0.0
14/08 04:53 17.0 17.9 -110.3 00:00 0.0
14/08 04:52 17.0 17.9 -110.3 00:00 0.0
14/08 04:51 17.0 17.9 -110.3 00:00 0.0
14/08 04:50 17.0 17.9 -110.3 00:00 0.0
14/08 04:49 17.0 17.9 -110.3 00:00 0.0
14/08 04:48 17.0 18 -110.3 00:00 0.0
14/08 04:47 17.0 17.9 -110.3 00:00 0.0
14/08 04:46 17.0 17.9 -110.3 00:00 0.0
14/08 04:45 17.0 17.8 -110.3 00:00 0.0
14/08 04:44 17.0 17.8 -110.3 00:00 0.0
14/08 04:43 17.0 17.8 -110.3 00:00 0.0
14/08 04:42 17.0 17.8 -110.3 00:00 0.0
14/08 04:41 17.0 17.8 -110.3 00:00 0.0
14/08 04:40 17.0 17.8 -110.3 00:00 0.0
14/08 04:39 17.0 17.7 -110.3 00:00 0.0
14/08 04:38 17.2 17.9 -110.3 00:00 0.0
14/08 04:37 17.2 17.9 -110.3 00:00 0.0
14/08 04:36 17.2 17.9 -110.3 00:00 0.0
14/08 04:35 17.2 17.9 -110.3 00:00 0.0
14/08 04:34 17.2 17.8 -110.3 00:00 0.0
14/08 04:33 17.2 17.8 -110.3 00:00 0.0
14/08 04:32 17.2 17.8 -110.3 00:00 0.0
14/08 04:31 17.2 17.7 -110.3 00:00 0.0
14/08 04:29 17.2 17.7 -110.3 00:00 0.0
14/08 04:28 17.2 17.7 -110.3 00:00 0.0
14/08 04:26 17.2 17.7 -110.3 00:00 0.0
14/08 04:25 17.2 17.7 -110.3 00:00 0.0
14/08 04:24 17.2 17.7 -110.3 00:00 0.0
14/08 04:23 17.2 17.8 -110.3 00:00 0.0
14/08 04:21 17.2 17.8 -110.3 00:00 0.0
14/08 04:20 17.2 17.8 -110.3 00:00 0.0
14/08 04:19 17.2 17.8 -110.3 00:00 0.0
14/08 04:18 17.2 17.7 -110.3 00:00 0.0
14/08 04:17 17.2 17.7 -110.3 00:00 0.0
14/08 04:16 17.2 17.7 -110.3 00:00 0.0
14/08 04:15 17.2 17.7 -110.3 00:00 0.0
14/08 04:14 17.2 17.6 -110.3 00:00 0.0
14/08 04:13 17.2 17.5 -110.3 00:00 0.0
14/08 04:12 17.2 17.5 -110.3 00:00 0.0
14/08 04:11 17.2 17.5 -110.3 00:00 0.0
14/08 04:10 17.2 17.6 -110.3 00:00 0.0
14/08 04:08 17.2 17.6 -110.3 00:00 0.0
14/08 04:07 17.2 17.6 -110.3 00:00 0.0
14/08 04:06 17.0 17.4 -110.3 00:00 0.0
14/08 04:05 17.0 17.4 -110.3 00:00 0.0
14/08 04:04 17.0 17.4 -110.3 00:00 0.0
14/08 04:03 17.0 17.4 -110.3 00:00 0.0
14/08 04:02 17.0 17.4 -110.3 00:00 0.0
14/08 04:01 17.2 17.6 -110.3 00:00 0.0
14/08 04:00 17.0 17.3 -110.3 00:00 0.0
14/08 03:59 17.0 17.3 -110.3 00:00 0.0
14/08 03:58 17.0 17.3 -110.3 00:00 0.0
14/08 03:57 17.0 17.3 -110.3 00:00 0.0
14/08 03:55 17.2 17.6 -110.3 00:00 0.0
14/08 03:54 17.0 17.4 -110.3 00:00 0.0
14/08 03:53 17.0 17.4 -110.3 00:00 0.0
14/08 03:52 17.0 17.4 -110.3 00:00 0.0
14/08 03:51 17.0 17.3 -110.3 00:00 0.0
14/08 03:50 17.0 17.3 -110.3 00:00 0.0
14/08 03:49 17.0 17.4 -110.3 00:00 0.0
14/08 03:48 17.0 17.4 -110.3 00:00 0.0
14/08 03:47 17.0 17.4 -110.3 00:00 0.0
14/08 03:46 17.0 17.4 -110.3 00:00 0.0
14/08 03:45 17.0 17.4 -110.3 00:00 0.0
14/08 03:44 17.0 17.5 -110.3 00:00 0.0
14/08 03:43 17.0 17.4 -110.3 00:00 0.0
14/08 03:42 17.0 17.5 -110.3 00:00 0.0
14/08 03:41 17.0 17.5 -110.3 00:00 0.0
14/08 03:40 17.0 17.5 -110.3 00:00 0.0
14/08 03:39 17.0 17.5 -110.3 00:00 0.0
14/08 03:38 17.0 17.5 -110.3 00:00 0.0
14/08 03:37 17.0 17.5 -110.3 00:00 0.0
14/08 03:36 17.2 17.7 -110.3 00:00 0.0
14/08 03:35 17.0 17.4 -110.3 00:00 0.0
14/08 03:34 17.0 17.4 -110.3 00:00 0.0
14/08 03:33 17.2 17.7 -110.3 00:00 0.0
14/08 03:32 17.2 17.7 -110.3 00:00 0.0
14/08 03:31 17.2 17.7 -110.3 00:00 0.0
14/08 03:30 17.2 17.7 -110.3 00:00 0.0
14/08 03:29 17.2 17.7 -110.3 00:00 0.0
14/08 03:28 17.2 17.7 -110.3 00:00 0.0
14/08 03:27 17.2 17.7 -110.3 00:00 0.0
14/08 03:26 17.2 17.7 -110.3 00:00 0.0
14/08 03:25 17.2 17.7 -110.3 00:00 0.0
14/08 03:24 17.2 17.7 -110.3 00:00 0.0
14/08 03:23 17.2 17.7 -110.3 00:00 0.0
14/08 03:22 17.2 17.8 -110.3 00:00 0.0
14/08 03:21 17.2 17.7 -110.3 00:00 0.0
14/08 03:20 17.2 17.7 -110.3 00:00 0.0
14/08 03:19 17.2 17.7 -110.3 00:00 0.0
14/08 03:18 17.2 17.7 -110.3 00:00 0.0
14/08 03:16 17.2 17.7 -110.3 00:00 0.0
14/08 03:14 17.0 17.4 -110.3 00:00 0.0
14/08 03:13 17.0 17.4 -110.3 00:00 0.0
14/08 03:12 17.2 17.6 -110.3 00:00 0.0
14/08 03:11 17.2 17.6 -110.3 00:00 0.0
14/08 03:10 17.2 17.6 -110.3 00:00 0.0
14/08 03:09 17.2 17.6 -110.3 00:00 0.0
14/08 03:08 17.2 17.5 -110.3 00:00 0.0
14/08 03:07 17.2 17.6 -110.3 00:00 0.0
14/08 03:06 17.2 17.6 -110.3 00:00 0.0
14/08 03:05 17.2 17.6 -110.3 00:00 0.0
14/08 03:04 17.2 17.6 -110.3 00:00 0.0
14/08 03:03 17.2 17.6 -110.3 00:00 0.0
14/08 03:02 17.2 17.6 -110.3 00:00 0.0
14/08 03:00 17.2 17.6 -110.3 00:00 0.0
14/08 02:59 17.2 17.6 -110.3 00:00 0.0
14/08 02:58 17.2 17.6 -110.3 00:00 0.0
14/08 02:57 17.2 17.5 -110.3 00:00 0.0
14/08 02:56 17.2 17.5 -110.3 00:00 0.0
14/08 02:55 17.2 17.5 -110.3 00:00 0.0
14/08 02:54 17.2 17.5 -110.3 00:00 0.0
14/08 02:53 17.2 17.5 -110.3 00:00 0.0
14/08 02:52 17.2 17.5 -110.3 00:00 0.0
14/08 02:51 17.2 17.5 -110.3 00:00 0.0
14/08 02:50 17.2 17.5 -110.3 00:00 0.0
14/08 02:49 17.2 17.5 -110.3 00:00 0.0
14/08 02:48 17.2 17.6 -110.3 00:00 0.0
14/08 02:47 17.0 17.4 -110.3 00:00 0.0
14/08 02:46 17.0 17.4 -110.3 00:00 0.0
14/08 02:45 17.2 17.6 -110.3 00:00 0.0
14/08 02:44 17.0 17.4 -110.3 00:00 0.0
14/08 02:43 17.0 17.4 -110.3 00:00 0.0
14/08 02:42 17.0 17.4 -110.3 00:00 0.0
14/08 02:41 17.0 17.4 -110.3 00:00 0.0
14/08 02:40 17.0 17.4 -110.3 00:00 0.0
14/08 02:39 17.0 17.4 -110.3 00:00 0.0
14/08 02:38 17.2 17.6 -110.3 00:00 0.0
14/08 02:37 17.0 17.4 -110.3 00:00 0.0
14/08 02:35 17.2 17.7 -110.3 00:00 0.0
14/08 02:34 17.0 17.4 -110.3 00:00 0.0
14/08 02:33 17.2 17.7 -110.3 00:00 0.0
14/08 02:32 17.2 17.7 -110.3 00:00 0.0
14/08 02:31 17.0 17.5 -110.3 00:00 0.0
14/08 02:30 17.0 17.5 -110.3 00:00 0.0
14/08 02:29 17.0 17.6 -110.3 00:00 0.0
14/08 02:28 17.0 17.6 -110.3 00:00 0.0
14/08 02:27 17.0 17.6 -110.3 00:00 0.0
14/08 02:26 17.0 17.7 -110.3 00:00 0.0
14/08 02:25 17.0 17.7 -110.3 00:00 0.0
14/08 02:24 17.0 17.7 -110.3 00:00 0.0
14/08 02:23 17.0 17.8 -110.3 00:00 0.0
14/08 02:22 17.0 17.9 -110.3 00:00 0.0
14/08 02:21 17.0 18 -110.3 00:00 0.0
14/08 02:20 17.0 18 -110.3 00:00 0.0
14/08 02:19 17.0 18 -110.3 00:00 0.0
14/08 02:17 17.0 18 -110.3 00:00 0.0
14/08 02:15 17.0 18 -110.3 00:00 0.0
14/08 02:14 17.0 17.9 -110.3 00:00 0.0
14/08 02:13 17.0 17.9 -110.3 00:00 0.0
14/08 02:12 17.0 17.9 -110.3 00:00 0.0
14/08 02:11 17.0 17.8 -110.3 00:00 0.0
14/08 02:10 17.0 17.8 -110.3 00:00 0.0
14/08 02:09 17.0 17.8 -110.3 00:00 0.0
14/08 02:08 17.0 17.8 -110.3 00:00 0.0
14/08 02:07 17.0 17.7 -110.3 00:00 0.0
14/08 02:06 16.8 17.5 -110.3 00:00 0.0
14/08 02:05 16.8 17.4 -110.3 00:00 0.0
14/08 02:04 17.0 17.6 -110.3 00:00 0.0
14/08 02:03 17.0 17.6 -110.3 00:00 0.0
14/08 02:02 17.0 17.6 -110.3 00:00 0.0
14/08 02:01 17.0 17.5 -110.3 00:00 0.0
14/08 02:00 17.0 17.5 -110.3 00:00 0.0
14/08 01:59 17.0 17.4 -110.3 00:00 0.0
14/08 01:58 17.0 17.4 -110.3 00:00 0.0
14/08 01:57 17.0 17.4 -110.3 00:00 0.0
14/08 01:56 17.0 17.4 -110.3 00:00 0.0
14/08 01:55 17.0 17.4 -110.3 00:00 0.0
14/08 01:54 17.0 17.3 -110.3 00:00 0.0
14/08 01:53 17.0 17.3 -110.3 00:00 0.0
14/08 01:52 17.0 17.2 -110.3 00:00 0.0
14/08 01:51 17.0 17.2 -110.3 00:00 0.0
14/08 01:50 17.0 17.2 -110.3 00:00 0.0
14/08 01:48 17.0 17.2 -110.3 00:00 0.0
14/08 01:47 17.0 17.2 -110.3 00:00 0.0
14/08 01:46 17.0 17.2 -110.3 00:00 0.0
14/08 01:45 17.0 17.2 -110.3 00:00 0.0
14/08 01:44 17.0 17.3 -110.3 00:00 0.0
14/08 01:43 17.2 17.5 -110.3 00:00 0.0
14/08 01:42 17.0 17.4 -110.3 00:00 0.0
14/08 01:41 17.0 17.4 -110.3 00:00 0.0
14/08 01:39 17.0 17.5 -110.3 00:00 0.0
14/08 01:38 17.0 17.5 -110.3 00:00 0.0
14/08 01:37 17.2 17.8 -110.3 00:00 0.0
14/08 01:36 17.0 17.5 -110.3 00:00 0.0
14/08 01:35 17.0 17.5 -110.3 00:00 0.0
14/08 01:34 17.0 17.5 -110.3 00:00 0.0
14/08 01:33 17.0 17.4 -110.3 00:00 0.0
14/08 01:32 17.0 17.4 -110.3 00:00 0.0
14/08 01:31 17.0 17.4 -110.3 00:00 0.0
14/08 01:30 17.0 17.3 -110.3 00:00 0.0
14/08 01:29 17.0 17.3 -110.3 00:00 0.0
14/08 01:28 17.0 17.3 -110.3 00:00 0.0
14/08 01:27 17.0 17.3 -110.3 00:00 0.0
14/08 01:25 17.0 17.4 -110.3 00:00 0.0
14/08 01:24 17.0 17.4 -110.3 00:00 0.0
14/08 01:23 17.0 17.4 -110.3 00:00 0.0
14/08 01:22 17.0 17.3 -110.3 00:00 0.0
14/08 01:21 17.0 17.3 -110.3 00:00 0.0
14/08 01:20 17.0 17.4 -110.3 00:00 0.0
14/08 01:19 17.0 17.3 -110.3 00:00 0.0
14/08 01:17 17.0 17.4 -110.3 00:00 0.0
14/08 01:16 17.0 17.3 -110.3 00:00 0.0
14/08 01:15 17.0 17.3 -110.3 00:00 0.0
14/08 01:14 17.0 17.3 -110.3 00:00 0.0
14/08 01:13 17.0 17.4 -110.3 00:00 0.0
14/08 01:12 17.0 17.4 -110.3 00:00 0.0
14/08 01:11 17.0 17.4 -110.3 00:00 0.0
14/08 01:10 17.0 17.4 -110.3 00:00 0.0
14/08 01:09 17.0 17.4 -110.3 00:00 0.0
14/08 01:08 17.0 17.4 -110.3 00:00 0.0
14/08 01:07 17.0 17.4 -110.3 00:00 0.0
14/08 01:06 17.0 17.4 -110.3 00:00 0.0
14/08 01:05 17.0 17.4 -110.3 00:00 0.0
14/08 01:04 17.0 17.4 -110.3 00:00 0.0
14/08 01:03 17.0 17.4 -110.3 00:00 0.0
14/08 01:02 17.0 17.4 -110.3 00:00 0.0
14/08 01:01 17.0 17.4 -110.3 00:00 0.0
14/08 01:00 17.0 17.4 -110.3 00:00 0.0
14/08 00:59 17.0 17.4 -110.3 00:00 0.0
14/08 00:58 16.8 17.2 -110.3 00:00 0.0
14/08 00:57 16.8 17.2 -110.3 00:00 0.0
14/08 00:56 17.0 17.4 -110.3 00:00 0.0
14/08 00:55 17.0 17.4 -110.3 00:00 0.0
14/08 00:54 17.0 17.4 -110.3 00:00 0.0
14/08 00:53 16.8 17.1 -110.3 00:00 0.0
14/08 00:52 16.8 17.1 -110.3 00:00 0.0
14/08 00:51 17.0 17.4 -110.3 00:00 0.0
14/08 00:50 17.0 17.4 -110.3 00:00 0.0
14/08 00:49 17.0 17.4 -110.3 00:00 0.0
14/08 00:48 17.0 17.4 -110.3 00:00 0.0
14/08 00:47 17.0 17.4 -110.3 00:00 0.0
14/08 00:46 17.0 17.4 -110.3 00:00 0.0
14/08 00:45 17.0 17.4 -110.3 00:00 0.0
14/08 00:44 17.0 17.3 -110.3 00:00 0.0
14/08 00:43 17.0 17.3 -110.3 00:00 0.0
14/08 00:42 17.0 17.3 -110.3 00:00 0.0
14/08 00:41 17.0 17.3 -110.3 00:00 0.0
14/08 00:40 16.8 17 -110.3 00:00 0.0
14/08 00:39 17.0 17.3 -110.3 00:00 0.0
14/08 00:38 17.0 17.2 -110.3 00:00 0.0
14/08 00:37 17.0 17.2 -110.3 00:00 0.0
14/08 00:36 16.8 17 -110.3 00:00 0.0
14/08 00:35 17.0 17.2 -110.3 00:00 0.0
14/08 00:34 17.0 17.2 -110.3 00:00 0.0
14/08 00:33 17.0 17.2 -110.3 00:00 0.0
14/08 00:32 17.0 17.2 -110.3 00:00 0.0
14/08 00:31 17.0 17.2 -110.3 00:00 0.0
14/08 00:30 17.0 17.2 -110.3 00:00 0.0
14/08 00:29 17.0 17.2 -110.3 00:00 0.0
14/08 00:28 17.0 17.2 -110.3 00:00 0.0
14/08 00:27 17.0 17.2 -110.3 00:00 0.0
14/08 00:26 17.0 17.2 -110.3 00:00 0.0
14/08 00:25 17.0 17.1 -110.3 00:00 0.0
14/08 00:24 17.0 17.1 -110.3 00:00 0.0
14/08 00:23 16.8 16.8 -110.3 00:00 0.0
14/08 00:22 17.0 17.1 -110.3 00:00 0.0
14/08 00:21 17.0 17.1 -110.3 00:00 0.0
14/08 00:20 17.0 17.1 -110.3 00:00 0.0
14/08 00:19 17.0 17.1 -110.3 00:00 0.0
14/08 00:18 17.0 17 -110.3 00:00 0.0
14/08 00:17 17.0 17 -110.3 00:00 0.0
14/08 00:16 17.0 17 -110.3 00:00 0.0
14/08 00:15 17.0 17 -110.3 00:00 0.0
14/08 00:14 17.0 17 -110.3 00:00 0.0
14/08 00:13 17.0 17 -110.3 00:00 0.0
14/08 00:12 17.0 17 -110.3 00:00 0.0
14/08 00:11 17.0 17 -110.3 00:00 0.0
14/08 00:10 17.0 17 -110.3 00:00 0.0
14/08 00:09 17.0 17 -110.3 00:00 0.0
14/08 00:08 17.0 17 -110.3 00:00 0.0
14/08 00:07 17.0 17 -110.3 00:00 0.0
14/08 00:06 17.0 17 -110.3 00:00 0.0
14/08 00:05 17.0 17 -110.3 00:00 0.0
14/08 00:04 17.0 16.9 -110.3 00:00 0.0
14/08 00:03 17.2 17.2 -110.3 00:00 0.0
14/08 00:02 17.2 17.1 -110.3 00:00 0.0
14/08 00:00 17.2 17.1 -110.3 00:00 0.0
13/08 23:59 17.2 17.1 -110.3 00:00 0.0
13/08 23:58 17.2 17.2 -110.3 00:00 0.0
13/08 23:57 17.2 17.2 -110.3 00:00 0.0
13/08 23:56 17.2 17.2 -110.3 00:00 0.0
13/08 23:55 17.2 17.3 -110.3 00:00 0.0
13/08 23:54 17.2 17.3 -110.3 00:00 0.0
13/08 23:53 17.2 17.3 -110.3 00:00 0.0
13/08 23:52 17.2 17.4 -110.3 00:00 0.0
13/08 23:51 17.2 17.4 -110.3 00:00 0.0
13/08 23:50 17.2 17.4 -110.3 00:00 0.0
13/08 23:49 17.2 17.4 -110.3 00:00 0.0
13/08 23:48 17.4 17.6 -110.3 00:00 0.0
13/08 23:47 17.4 17.7 -110.3 00:00 0.0
13/08 23:46 17.4 17.7 -110.3 00:00 0.0
13/08 23:45 17.4 17.7 -110.3 00:00 0.0
13/08 23:44 17.4 17.7 -110.3 00:00 0.0
13/08 23:43 17.4 17.7 -110.3 00:00 0.0
13/08 23:42 17.4 17.7 -110.3 00:00 0.0
13/08 23:41 17.4 17.7 -110.3 00:00 0.0
13/08 23:40 17.4 17.7 -110.3 00:00 0.0
13/08 23:39 17.4 17.7 -110.3 00:00 0.0
13/08 23:38 17.4 17.7 -110.3 00:00 0.0
13/08 23:37 17.4 17.7 -110.3 00:00 0.0
13/08 23:36 17.4 17.7 -110.3 00:00 0.0
13/08 23:35 17.4 17.7 -110.3 00:00 0.0
13/08 23:34 17.4 17.7 -110.3 00:00 0.0
13/08 23:33 17.4 17.7 -110.3 00:00 0.0
13/08 23:32 17.4 17.7 -110.3 00:00 0.0
13/08 23:31 17.4 17.7 -110.3 00:00 0.0
13/08 23:30 17.4 17.7 -110.3 00:00 0.0
13/08 23:29 17.4 17.7 -110.3 00:00 0.0
13/08 23:28 17.4 17.7 -110.3 00:00 0.0
13/08 23:27 17.4 17.7 -110.3 00:00 0.0
13/08 23:26 17.4 17.7 -110.3 00:00 0.0
13/08 23:25 17.4 17.7 -110.3 00:00 0.0
13/08 23:24 17.4 17.6 -110.3 00:00 0.0
13/08 23:23 17.4 17.6 -110.3 00:00 0.0
13/08 23:22 17.4 17.6 -110.3 00:00 0.0
13/08 23:21 17.4 17.6 -110.3 00:00 0.0
13/08 23:20 17.4 17.6 -110.3 00:00 0.0
13/08 23:19 17.4 17.6 -110.3 00:00 0.0
13/08 23:18 17.6 17.8 -110.2 00:00 0.0
13/08 23:17 17.4 17.5 -110.3 00:00 0.0
13/08 23:16 17.4 17.5 -110.3 00:00 0.0
13/08 23:15 17.4 17.5 -110.3 00:00 0.0
13/08 23:14 17.6 17.8 -110.2 00:00 0.0
13/08 23:13 17.6 17.8 -110.2 00:00 0.0
13/08 23:12 17.6 17.8 -110.2 00:00 0.0
13/08 23:11 17.6 17.8 -110.2 00:00 0.0
13/08 23:10 17.6 17.9 -110.2 00:00 0.0
13/08 23:09 17.6 17.9 -110.2 00:00 0.0
13/08 23:08 17.6 17.9 -110.2 00:00 0.0
13/08 23:07 17.6 17.9 -110.2 00:00 0.0
13/08 23:06 17.6 17.9 -110.2 00:00 0.0
13/08 23:05 17.6 18 -110.2 00:00 0.0
13/08 23:04 17.8 18.2 -110.2 00:00 0.0
13/08 23:03 17.8 18.2 -110.2 00:00 0.0
13/08 23:02 17.8 18.2 -110.2 00:00 0.0
13/08 23:01 17.6 18 -110.2 00:00 0.0
13/08 23:00 17.6 17.9 -110.2 00:00 0.0
13/08 22:59 17.6 17.9 -110.2 00:00 0.0
13/08 22:58 17.6 17.9 -110.2 00:00 0.0
13/08 22:57 17.6 17.9 -110.2 00:00 0.0
13/08 22:56 17.8 18.1 -110.2 00:00 0.0
13/08 22:55 17.8 18.1 -110.2 00:00 0.0
13/08 22:54 17.8 18.1 -110.2 00:00 0.0
13/08 22:53 17.8 18.1 -110.2 00:00 0.0
13/08 22:52 17.8 18.1 -110.2 00:00 0.0
13/08 22:51 17.8 18 -110.2 00:00 0.0
13/08 22:50 17.8 18 -110.2 00:00 0.0
13/08 22:49 17.8 18 -110.2 00:00 0.0
13/08 22:48 17.8 18 -110.2 00:00 0.0
13/08 22:47 17.8 18 -110.2 00:00 0.0
13/08 22:46 17.8 18 -110.2 00:00 0.0
13/08 22:45 17.8 18 -110.2 00:00 0.0
13/08 22:44 17.8 18 -110.2 00:00 0.0
13/08 22:43 17.8 18 -110.2 00:00 0.0
13/08 22:42 17.8 18 -110.2 00:00 0.0
13/08 22:41 17.8 18 -110.2 00:00 0.0
13/08 22:40 17.8 18 -110.2 00:00 0.0
13/08 22:39 18.0 18.2 -110.2 00:00 0.0
13/08 22:38 18.0 18.2 -110.2 00:00 0.0
13/08 22:37 18.0 18.2 -110.2 00:00 0.0
13/08 22:36 18.0 18.1 -110.2 00:00 0.0
13/08 22:35 18.0 18.1 -110.2 00:00 0.0
13/08 22:34 18.0 18.1 -110.2 00:00 0.0
13/08 22:33 18.0 18.1 -110.2 00:00 0.0
13/08 22:32 18.2 18.4 -110.2 00:00 0.0
13/08 22:31 18.2 18.3 -110.2 00:00 0.0
13/08 22:30 18.2 18.3 -110.2 00:00 0.0
13/08 22:29 18.2 18.3 -110.2 00:00 0.0
13/08 22:28 18.2 18.3 -110.2 00:00 0.0
13/08 22:27 18.2 18.3 -110.2 00:00 0.0
13/08 22:26 18.4 18.6 -110.2 00:00 0.0
13/08 22:25 18.4 18.6 -110.2 00:00 0.0
13/08 22:24 18.4 18.6 -110.2 00:00 0.0
13/08 22:23 18.4 18.5 -110.2 00:00 0.0
13/08 22:22 18.4 18.5 -110.2 00:00 0.0
13/08 22:21 18.4 18.5 -110.2 00:00 0.0
13/08 22:20 18.4 18.5 -110.2 00:00 0.0
13/08 22:19 18.4 18.6 -110.2 00:00 0.0
13/08 22:18 18.6 18.8 -110.1 00:00 0.0
13/08 22:17 18.4 18.6 -110.2 00:00 0.0
13/08 22:16 18.6 18.8 -110.1 00:00 0.0
13/08 22:15 18.6 18.8 -110.1 00:00 0.0
13/08 22:14 18.6 18.9 -110.1 00:00 0.0
13/08 22:13 18.6 18.9 -110.1 00:00 0.0
13/08 22:12 18.6 18.9 -110.1 00:00 0.0
13/08 22:11 18.8 19.1 -110.1 00:00 0.0
13/08 22:10 18.8 19.1 -110.1 00:00 0.0
13/08 22:09 18.8 19.1 -110.1 00:00 0.0
13/08 22:08 18.8 19.1 -110.1 00:00 0.0
13/08 22:07 18.6 18.9 -110.1 00:00 0.0
13/08 22:06 18.8 19.2 -110.1 00:00 0.0
13/08 22:05 18.8 19.2 -110.1 00:00 0.0
13/08 22:04 18.8 19.2 -110.1 00:00 0.0
13/08 22:03 18.8 19.2 -110.1 00:00 0.0
13/08 22:02 18.8 19.3 -110.1 00:00 0.0
13/08 22:01 18.8 19.3 -110.1 00:00 0.0
13/08 22:00 18.8 19.4 -110.1 00:00 0.0
13/08 21:59 18.8 19.4 -110.1 00:00 0.0
13/08 21:58 18.8 19.5 -110.1 00:00 0.0
13/08 21:57 18.8 19.5 -110.1 00:00 0.0
13/08 21:56 18.8 19.5 -110.1 00:00 0.0
13/08 21:55 18.8 19.5 -110.1 00:00 0.0
13/08 21:54 18.8 19.5 -110.1 00:00 0.0
13/08 21:53 18.8 19.5 -110.1 00:00 0.0
13/08 21:52 19.0 19.8 -110.1 00:00 0.0
13/08 21:51 19.0 19.8 -110.1 00:00 0.0
13/08 21:50 19.0 19.8 -110.1 00:00 0.0
13/08 21:49 19.0 19.8 -110.1 00:00 0.0
13/08 21:48 19.0 19.8 -110.1 00:00 0.0
13/08 21:47 19.0 19.7 -110.1 00:00 0.0
13/08 21:46 19.0 19.7 -110.1 00:00 0.0
13/08 21:45 18.8 19.5 -110.1 00:00 0.0
13/08 21:44 18.8 19.5 -110.1 00:00 0.0
13/08 21:43 18.8 19.5 -110.1 00:00 0.0
13/08 21:42 18.8 19.5 -110.1 00:00 0.0
13/08 21:41 18.8 19.5 -110.1 00:00 0.0
13/08 21:40 19.0 19.7 -110.1 00:00 0.0
13/08 21:39 18.8 19.5 -110.1 00:00 0.0
13/08 21:38 18.8 19.5 -110.1 00:00 0.0
13/08 21:37 19.0 19.8 -110.1 00:00 0.0
13/08 21:36 19.0 19.8 -110.1 00:00 0.0
13/08 21:35 18.8 19.6 -110.1 00:00 0.0
13/08 21:34 18.8 19.6 -110.1 00:00 0.0
13/08 21:33 18.8 19.6 -110.1 00:00 0.0
13/08 21:32 18.8 19.6 -110.1 00:00 0.0
13/08 21:31 18.8 19.6 -110.1 00:00 0.0
13/08 21:30 19.0 19.9 -110.1 00:00 0.0
13/08 21:29 19.0 19.9 -110.1 00:00 0.0
13/08 21:28 19.0 19.9 -110.1 00:00 0.0
13/08 21:27 19.0 19.9 -110.1 00:00 0.0
13/08 21:26 19.0 19.9 -110.1 00:00 0.0
13/08 21:25 19.0 19.9 -110.1 00:00 0.0
13/08 21:24 19.0 19.9 -110.1 00:00 0.0
13/08 21:23 18.8 19.8 -110.1 00:00 0.0
13/08 21:22 19.0 20 -110.1 00:00 0.0
13/08 21:21 19.0 20 -110.1 00:00 0.0
13/08 21:20 19.0 20 -110.1 00:00 0.0
13/08 21:19 19.0 20 -110.1 00:00 0.0
13/08 21:18 19.0 20 -110.1 00:00 0.0
13/08 21:17 19.0 20 -110.1 00:00 0.0
13/08 21:16 18.8 19.8 -110.1 00:00 0.0
13/08 21:15 19.0 20 -110.1 00:00 0.0
13/08 21:14 19.0 20 -110.1 00:00 0.0
13/08 21:13 19.0 20 -110.1 00:00 0.0
13/08 21:12 19.0 20 -110.1 00:00 0.0
13/08 21:11 19.0 20 -110.1 00:00 0.0
13/08 21:10 19.0 20 -110.1 00:00 0.0
13/08 21:09 19.0 20 -110.1 00:00 0.0
13/08 21:08 19.0 20 -110.1 00:00 0.0
13/08 21:07 19.0 20 -110.1 00:00 0.0
13/08 21:06 19.0 20 -110.1 00:00 0.0
13/08 21:05 19.0 20 -110.1 00:00 0.0
13/08 21:04 19.0 20 -110.1 00:00 0.0
13/08 21:03 19.0 20 -110.1 00:00 0.0
13/08 21:02 19.0 20 -110.1 00:00 0.0
13/08 21:01 19.0 20 -110.1 00:00 0.0
13/08 21:00 19.0 20 -110.1 00:00 0.0
13/08 20:59 18.8 19.8 -110.1 00:00 0.0
13/08 20:58 19.0 20 -110.1 00:00 0.0
13/08 20:57 19.0 20.1 -110.1 00:00 0.0
13/08 20:56 19.0 20.1 -110.1 00:00 0.0
13/08 20:55 19.0 20.2 -110.1 00:00 0.0
13/08 20:54 19.0 20.2 -110.1 00:00 0.0
13/08 20:53 19.0 20.2 -110.1 00:00 0.0
13/08 20:52 19.0 20.2 -110.1 00:00 0.0
13/08 20:51 19.0 20.2 -110.1 00:00 0.0
13/08 20:50 19.0 20.2 -110.1 00:00 0.0
13/08 20:49 19.0 20.2 -110.1 00:00 0.0
13/08 20:48 19.0 20.2 -110.1 00:00 0.0
13/08 20:47 19.0 20.1 -110.1 00:00 0.0
13/08 20:46 19.0 20.1 -110.1 00:00 0.0
13/08 20:45 19.2 20.3 -110.1 00:00 0.0
13/08 20:44 19.2 20.3 -110.1 00:00 0.0
13/08 20:43 19.2 20.3 -110.1 00:00 0.0
13/08 20:42 19.0 20.1 -110.1 00:00 0.0
13/08 20:41 19.0 20.2 -110.1 00:00 0.0
13/08 20:40 19.0 20.2 -110.1 00:00 0.0
13/08 20:39 19.2 20.4 -110.1 00:00 0.0
13/08 20:38 19.0 20.2 -110.1 00:00 0.0
13/08 20:37 19.0 20.3 -110.1 00:00 0.0
13/08 20:36 19.0 20.3 -110.1 00:00 0.0
13/08 20:35 19.0 20.3 -110.1 00:00 0.0
13/08 20:34 19.0 20.2 -110.1 00:00 0.0
13/08 20:33 19.0 20.2 -110.1 00:00 0.0
13/08 20:32 19.0 20.2 -110.1 00:00 0.0
13/08 20:31 19.0 20.2 -110.1 00:00 0.0
13/08 20:30 19.2 20.5 -110.1 00:00 0.0
13/08 20:29 19.0 20.2 -110.1 00:00 0.0
13/08 20:28 19.0 20.2 -110.1 00:00 0.0
13/08 20:27 19.2 20.4 -110.1 00:00 0.0
13/08 20:26 19.0 20.3 -110.1 00:00 0.0
13/08 20:25 19.0 20.3 -110.1 00:00 0.0
13/08 20:24 19.0 20.3 -110.1 00:00 0.0
13/08 20:23 19.0 20.4 -110.1 00:00 0.0
13/08 20:22 19.0 20.3 -110.1 00:00 0.0
13/08 20:21 19.0 20.3 -110.1 00:00 0.0
13/08 20:20 19.2 20.6 -110.1 00:00 0.0
13/08 20:19 19.0 20.3 -110.1 00:00 0.0
13/08 20:18 19.2 20.6 -110.1 00:00 0.0
13/08 20:17 19.2 20.6 -110.1 00:00 0.0
13/08 20:16 19.2 20.6 -110.1 00:00 0.0
13/08 20:15 19.2 20.6 -110.1 00:00 0.0
13/08 20:14 19.0 20.4 -110.1 00:00 0.0
13/08 20:13 19.0 20.5 -110.1 00:00 0.0
13/08 20:12 19.2 20.7 -110.1 00:00 0.0
13/08 20:11 19.2 20.8 -110.1 00:00 0.0
13/08 20:10 19.2 20.9 -110.1 00:00 0.0
13/08 20:09 19.0 20.6 -110.1 00:00 0.0
13/08 20:08 19.2 20.9 -110.1 00:00 0.0
13/08 20:07 19.0 20.6 -110.1 00:00 0.0
13/08 20:05 19.2 20.7 -110.1 00:00 0.0
13/08 20:04 19.0 20.5 -110.1 00:00 0.0
13/08 20:03 19.0 20.5 -110.1 00:00 0.0
13/08 20:02 19.0 20.5 -110.1 00:00 0.0
13/08 20:01 19.0 20.5 -110.1 00:00 0.0
13/08 20:00 19.0 20.6 -110.1 00:00 0.0
13/08 19:59 19.0 20.6 -110.1 00:00 0.0
13/08 19:58 19.0 20.7 -110.1 00:00 0.0
13/08 19:57 19.0 20.8 -110.1 00:00 0.0
13/08 19:56 19.0 20.9 -110.1 00:00 0.0
13/08 19:55 19.0 21 -110.1 00:00 0.0
13/08 19:54 19.0 21.1 -110.1 00:00 0.0
13/08 19:53 18.8 21 -110.1 00:00 0.0
13/08 19:52 18.8 21 -110.1 00:00 0.0
13/08 19:51 18.8 21 -110.1 00:00 0.0
13/08 19:50 18.8 21 -110.1 00:00 0.0
13/08 19:49 19.0 21.1 -110.1 00:00 0.0
13/08 19:48 19.0 21 -110.1 00:00 0.0
13/08 19:47 19.0 21 -110.1 00:00 0.0
13/08 19:46 19.0 20.9 -110.1 00:00 0.0
13/08 19:45 19.0 20.9 -110.1 00:00 0.0
13/08 19:44 19.0 20.9 -110.1 00:00 0.0
13/08 19:43 19.0 20.8 -110.1 00:00 0.0
13/08 19:42 19.0 20.8 -110.1 00:00 0.0
13/08 19:41 18.8 20.6 -110.1 00:00 0.0
13/08 19:40 18.8 20.5 -110.1 00:00 0.0
13/08 19:39 18.8 20.5 -110.1 00:00 0.0
13/08 19:38 18.8 20.5 -110.1 00:00 0.0
13/08 19:37 18.8 20.5 -110.1 00:00 0.0
13/08 19:36 18.8 20.4 -110.1 00:00 0.0
13/08 19:35 19.0 20.6 -110.1 00:00 0.0
13/08 19:34 18.8 20.4 -110.1 00:00 0.0
13/08 19:33 19.0 20.6 -110.1 00:00 0.0
13/08 19:32 19.0 20.6 -110.1 00:00 0.0
13/08 19:31 19.0 20.6 -110.1 00:00 0.0
13/08 19:30 19.0 20.5 -110.1 00:00 0.0
13/08 19:29 19.0 20.5 -110.1 00:00 0.0
13/08 19:28 19.2 20.7 -110.1 00:00 0.0
13/08 19:27 19.2 20.8 -110.1 00:00 0.0
13/08 19:26 19.2 20.7 -110.1 00:00 0.0
13/08 19:25 19.2 20.7 -110.1 00:00 0.0
13/08 19:24 19.2 20.7 -110.1 00:00 0.0
13/08 19:23 19.2 20.6 -110.1 00:00 0.0
13/08 19:22 19.2 20.6 -110.1 00:00 0.0
13/08 19:21 19.2 20.6 -110.1 00:00 0.0
13/08 19:20 19.2 20.5 -110.1 00:00 0.0
13/08 19:19 19.2 20.5 -110.1 00:00 0.0
13/08 19:18 19.2 20.4 -110.1 00:00 0.0
13/08 19:17 19.2 20.4 -110.1 00:00 0.0
13/08 19:16 19.2 20.3 -110.1 00:00 0.0
13/08 19:15 19.2 20.3 -110.1 00:00 0.0
13/08 19:14 19.2 20.2 -110.1 00:00 0.0
13/08 19:13 19.2 20.2 -110.1 00:00 0.0
13/08 19:12 19.2 20.2 -110.1 00:00 0.0
13/08 19:11 19.2 20.2 -110.1 00:00 0.0
13/08 19:10 19.2 20.2 -110.1 00:00 0.0
13/08 19:09 19.2 20.2 -110.1 00:00 0.0
13/08 19:08 19.2 20.1 -110.1 00:00 0.0
13/08 19:07 19.2 20.1 -110.1 00:00 0.0
13/08 19:06 19.2 20.1 -110.1 00:00 0.0
13/08 19:05 19.2 20.1 -110.1 00:00 0.0
13/08 19:04 19.2 20.1 -110.1 00:00 0.0
13/08 19:03 19.2 20.1 -110.1 00:00 0.0
13/08 19:02 19.4 20.4 -110.1 00:00 0.0
13/08 19:01 19.4 20.3 -110.1 00:00 0.0
13/08 19:00 19.4 20.3 -110.1 00:00 0.0
13/08 18:59 19.4 20.3 -110.1 00:00 0.0
13/08 18:58 19.4 20.3 -110.1 00:00 0.0
13/08 18:57 19.4 20.3 -110.1 00:00 0.0
13/08 18:56 19.6 20.6 -110 00:00 0.0
13/08 18:55 19.6 20.6 -110 00:00 0.0
13/08 18:54 19.6 20.6 -110 00:00 0.0
13/08 18:53 19.6 20.5 -110 00:00 0.0
13/08 18:52 19.8 20.8 -110 00:00 0.0
13/08 18:51 19.6 20.5 -110 00:00 0.0
13/08 18:50 19.6 20.5 -110 00:00 0.0
13/08 18:49 19.6 20.5 -110 00:00 0.0
13/08 18:48 19.6 20.5 -110 00:00 0.0
13/08 18:47 19.4 20.3 -110.1 00:00 0.0
13/08 18:46 19.4 20.3 -110.1 00:00 0.0
13/08 18:45 19.4 20.3 -110.1 00:00 0.0
13/08 18:44 19.2 20 -110.1 00:00 0.0
13/08 18:43 19.2 20 -110.1 00:00 0.0
13/08 18:42 19.0 19.8 -110.1 00:00 0.0
13/08 18:41 19.2 20.1 -110.1 00:00 0.0
13/08 18:40 19.2 20.1 -110.1 00:00 0.0
13/08 18:39 19.2 20.1 -110.1 00:00 0.0
13/08 18:38 19.2 20 -110.1 00:00 0.0
13/08 18:37 19.2 20 -110.1 00:00 0.0
13/08 18:36 19.2 20 -110.1 00:00 0.0
13/08 18:35 19.2 20 -110.1 00:00 0.0
13/08 18:34 19.2 19.9 -110.1 00:00 0.0
13/08 18:33 19.0 19.7 -110.1 00:00 0.0
13/08 18:32 19.0 19.7 -110.1 00:00 0.0
13/08 18:31 19.0 19.6 -110.1 00:00 0.0
13/08 18:30 19.0 19.6 -110.1 00:00 0.0
13/08 18:29 19.0 19.7 -110.1 00:00 0.0
13/08 18:28 19.0 19.7 -110.1 00:00 0.0
13/08 18:27 19.0 19.7 -110.1 00:00 0.0
13/08 18:26 19.0 19.7 -110.1 00:00 0.0
13/08 18:25 19.0 19.7 -110.1 00:00 0.0
13/08 18:24 19.0 19.7 -110.1 00:00 0.0
13/08 18:23 19.0 19.7 -110.1 00:00 0.0
13/08 18:22 19.0 19.7 -110.1 00:00 0.0
13/08 18:21 19.0 19.7 -110.1 00:00 0.0
13/08 18:20 19.0 19.7 -110.1 00:00 0.0
13/08 18:19 19.0 19.7 -110.1 00:00 0.0
13/08 18:18 19.0 19.6 -110.1 00:00 0.0
13/08 18:17 19.0 19.6 -110.1 00:00 0.0
13/08 18:16 19.0 19.6 -110.1 00:00 0.0
13/08 18:15 19.0 19.6 -110.1 00:00 0.0
13/08 18:14 19.0 19.6 -110.1 00:00 0.0
13/08 18:13 19.0 19.5 -110.1 00:00 0.0
13/08 18:11 18.8 19.3 -110.1 00:00 0.0
13/08 18:10 18.8 19.2 -110.1 00:00 0.0
13/08 18:09 18.8 19.3 -110.1 00:00 0.0
13/08 18:08 18.8 19.3 -110.1 00:00 0.0
13/08 18:07 18.8 19.3 -110.1 00:00 0.0
13/08 18:06 18.8 19.3 -110.1 00:00 0.0
13/08 18:05 18.8 19.2 -110.1 00:00 0.0
13/08 18:04 18.8 19.2 -110.1 00:00 0.0
13/08 18:03 18.8 19.2 -110.1 00:00 0.0
13/08 18:02 18.8 19.2 -110.1 00:00 0.0
13/08 18:01 18.8 19.2 -110.1 00:00 0.0
13/08 18:00 18.8 19.2 -110.1 00:00 0.0
13/08 17:59 18.8 19.2 -110.1 00:00 0.0
13/08 17:58 18.8 19.2 -110.1 00:00 0.0
13/08 17:57 18.8 19.2 -110.1 00:00 0.0
13/08 17:56 18.8 19.2 -110.1 00:00 0.0
13/08 17:55 18.8 19.2 -110.1 00:00 0.0
13/08 17:54 18.8 19.2 -110.1 00:00 0.0
13/08 17:53 18.8 19.2 -110.1 00:00 0.0
13/08 17:52 18.8 19.1 -110.1 00:00 0.0
13/08 17:51 18.8 19.1 -110.1 00:00 0.0
13/08 17:50 18.8 19.1 -110.1 00:00 0.0
13/08 17:49 18.8 19.1 -110.1 00:00 0.0
13/08 17:48 18.8 19.1 -110.1 00:00 0.0
13/08 17:47 19.0 19.3 -110.1 00:00 0.0
13/08 17:46 19.0 19.3 -110.1 00:00 0.0
13/08 17:45 19.0 19.3 -110.1 00:00 0.0
13/08 17:44 19.0 19.4 -110.1 00:00 0.0
13/08 17:43 19.0 19.4 -110.1 00:00 0.0
13/08 17:42 19.0 19.4 -110.1 00:00 0.0
13/08 17:41 19.0 19.4 -110.1 00:00 0.0
13/08 17:40 19.0 19.4 -110.1 00:00 0.0
13/08 17:39 19.0 19.4 -110.1 00:00 0.0
13/08 17:38 19.0 19.4 -110.1 00:00 0.0
13/08 17:37 19.0 19.4 -110.1 00:00 0.0
13/08 17:36 19.0 19.4 -110.1 00:00 0.0
13/08 17:35 19.0 19.4 -110.1 00:00 0.0
13/08 17:34 19.0 19.4 -110.1 00:00 0.0
13/08 17:33 19.0 19.4 -110.1 00:00 0.0
13/08 17:32 19.0 19.4 -110.1 00:00 0.0
13/08 17:31 19.0 19.4 -110.1 00:00 0.0
13/08 17:30 19.0 19.3 -110.1 00:00 0.0
13/08 17:29 19.0 19.3 -110.1 00:00 0.0
13/08 17:28 19.0 19.3 -110.1 00:00 0.0
13/08 17:27 19.0 19.2 -110.1 00:00 0.0
13/08 17:26 19.0 19.2 -110.1 00:00 0.0
13/08 17:25 19.0 19.2 -110.1 00:00 0.0
13/08 17:24 19.0 19.2 -110.1 00:00 0.0
13/08 17:23 19.0 19.2 -110.1 00:00 0.0
13/08 17:22 19.0 19.2 -110.1 00:00 0.0
13/08 17:21 19.0 19.2 -110.1 00:00 0.0
13/08 17:20 19.0 19.2 -110.1 00:00 0.0
13/08 17:19 19.0 19.2 -110.1 00:00 0.0
13/08 17:18 19.0 19.2 -110.1 00:00 0.0
13/08 17:17 19.2 19.5 -110.1 00:00 0.0
13/08 17:16 19.2 19.5 -110.1 00:00 0.0
13/08 17:15 19.2 19.5 -110.1 00:00 0.0
13/08 17:14 19.4 19.7 -110.1 00:00 0.0
13/08 17:13 19.4 19.7 -110.1 00:00 0.0
13/08 17:12 19.4 19.7 -110.1 00:00 0.0
13/08 17:11 19.2 19.5 -110.1 00:00 0.0
13/08 17:10 19.2 19.4 -110.1 00:00 0.0
13/08 17:09 19.2 19.5 -110.1 00:00 0.0
13/08 17:08 19.2 19.5 -110.1 00:00 0.0
13/08 17:07 19.2 19.5 -110.1 00:00 0.0
13/08 17:06 19.2 19.6 -110.1 00:00 0.0
13/08 17:05 19.4 19.8 -110.1 00:00 0.0
13/08 17:04 19.4 19.9 -110.1 00:00 0.0
13/08 17:03 19.2 19.7 -110.1 00:00 0.0
13/08 17:02 19.2 19.7 -110.1 00:00 0.0
13/08 17:01 19.2 19.8 -110.1 00:00 0.0
13/08 17:00 19.2 19.8 -110.1 00:00 0.0
13/08 16:59 19.2 19.8 -110.1 00:00 0.0
13/08 16:58 19.2 19.8 -110.1 00:00 0.0
13/08 16:57 19.2 19.8 -110.1 00:00 0.0
13/08 16:56 19.2 19.8 -110.1 00:00 0.0
13/08 16:55 19.0 19.6 -110.1 00:00 0.0
13/08 16:54 19.0 19.6 -110.1 00:00 0.0
13/08 16:53 19.0 19.6 -110.1 00:00 0.0
13/08 16:52 19.0 19.6 -110.1 00:00 0.0
13/08 16:51 19.0 19.6 -110.1 00:00 0.0
13/08 16:50 19.0 19.6 -110.1 00:00 0.0
13/08 16:49 19.0 19.5 -110.1 00:00 0.0
13/08 16:48 19.0 19.5 -110.1 00:00 0.0
13/08 16:47 19.0 19.5 -110.1 00:00 0.0
13/08 16:46 19.0 19.5 -110.1 00:00 0.0
13/08 16:45 19.0 19.5 -110.1 00:00 0.0
13/08 16:44 19.0 19.4 -110.1 00:00 0.0
13/08 16:43 19.0 19.4 -110.1 00:00 0.0
13/08 16:42 19.0 19.4 -110.1 00:00 0.0
13/08 16:41 19.0 19.4 -110.1 00:00 0.0
13/08 16:40 19.0 19.3 -110.1 00:00 0.0
13/08 16:39 19.0 19.3 -110.1 00:00 0.0
13/08 16:38 19.0 19.3 -110.1 00:00 0.0
13/08 16:37 19.0 19.3 -110.1 00:00 0.0
13/08 16:36 19.0 19.2 -110.1 00:00 0.0
13/08 16:35 19.0 19.2 -110.1 00:00 0.0
13/08 16:34 19.0 19.2 -110.1 00:00 0.0
13/08 16:33 19.0 19.2 -110.1 00:00 0.0
13/08 16:32 19.0 19.2 -110.1 00:00 0.0
13/08 16:31 18.8 19 -110.1 00:00 0.0
13/08 16:30 18.8 19 -110.1 00:00 0.0
13/08 16:29 18.8 19 -110.1 00:00 0.0
13/08 16:28 18.8 19 -110.1 00:00 0.0
13/08 16:27 18.8 19 -110.1 00:00 0.0
13/08 16:26 18.8 19 -110.1 00:00 0.0
13/08 16:25 18.8 19 -110.1 00:00 0.0
13/08 16:24 19.0 19.2 -110.1 00:00 0.0
13/08 16:23 19.0 19.2 -110.1 00:00 0.0
13/08 16:22 19.0 19.2 -110.1 00:00 0.0
13/08 16:21 18.8 19 -110.1 00:00 0.0
13/08 16:20 18.8 19 -110.1 00:00 0.0
13/08 16:19 18.8 19 -110.1 00:00 0.0
13/08 16:18 18.8 19 -110.1 00:00 0.0
13/08 16:17 18.8 19 -110.1 00:00 0.0
13/08 16:16 18.8 19 -110.1 00:00 0.0
13/08 16:15 18.8 19.1 -110.1 00:00 0.0
13/08 16:14 19.0 19.3 -110.1 00:00 0.0
13/08 16:13 19.0 19.3 -110.1 00:00 0.0
13/08 16:12 19.2 19.6 -110.1 00:00 0.0
13/08 16:11 19.2 19.6 -110.1 00:00 0.0
13/08 16:10 19.0 19.3 -110.1 00:00 0.0
13/08 16:09 19.0 19.3 -110.1 00:00 0.0
13/08 16:08 19.0 19.3 -110.1 00:00 0.0
13/08 16:07 19.0 19.3 -110.1 00:00 0.0
13/08 16:06 19.0 19.3 -110.1 00:00 0.0
13/08 16:05 19.0 19.3 -110.1 00:00 0.0
13/08 16:04 19.0 19.3 -110.1 00:00 0.0
13/08 16:03 19.2 19.6 -110.1 00:00 0.0
13/08 16:02 19.2 19.6 -110.1 00:00 0.0
13/08 16:01 19.2 19.6 -110.1 00:00 0.0
13/08 16:00 19.2 19.7 -110.1 00:00 0.0
13/08 15:59 19.2 19.7 -110.1 00:00 0.0
13/08 15:58 19.2 19.7 -110.1 00:00 0.0
13/08 15:57 19.2 19.7 -110.1 00:00 0.0
13/08 15:56 19.2 19.7 -110.1 00:00 0.0
13/08 15:55 19.4 19.9 -110.1 00:00 0.0
13/08 15:54 19.4 19.9 -110.1 00:00 0.0
13/08 15:53 19.4 19.9 -110.1 00:00 0.0
13/08 15:52 19.4 19.9 -110.1 00:00 0.0
13/08 15:51 19.4 19.9 -110.1 00:00 0.0
13/08 15:50 19.6 20.2 -110 00:00 0.0
13/08 15:49 19.6 20.2 -110 00:00 0.0
13/08 15:48 19.6 20.1 -110 00:00 0.0
13/08 15:47 19.6 20.1 -110 00:00 0.0
13/08 15:46 19.6 20.1 -110 00:00 0.0
13/08 15:45 19.6 20.1 -110 00:00 0.0
13/08 15:44 19.6 20.1 -110 00:00 0.0
13/08 15:43 19.6 20.1 -110 00:00 0.0
13/08 15:42 19.6 20.1 -110 00:00 0.0
13/08 15:41 19.6 20.1 -110 00:00 0.0
13/08 15:40 19.4 19.8 -110.1 00:00 0.0
13/08 15:39 19.4 19.8 -110.1 00:00 0.0
13/08 15:38 19.4 19.8 -110.1 00:00 0.0
13/08 15:37 19.4 19.9 -110.1 00:00 0.0
13/08 15:36 19.6 20.1 -110 00:00 0.0
13/08 15:35 19.4 19.9 -110.1 00:00 0.0
13/08 15:34 19.4 19.9 -110.1 00:00 0.0
13/08 15:33 19.4 19.9 -110.1 00:00 0.0
13/08 15:32 19.4 19.9 -110.1 00:00 0.0
13/08 15:31 19.6 20.2 -110 00:00 0.0
13/08 15:30 19.6 20.2 -110 00:00 0.0
13/08 15:29 19.8 20.5 -110 00:00 0.0
13/08 15:28 19.8 20.5 -110 00:00 0.0
13/08 15:27 19.6 20.2 -110 00:00 0.0
13/08 15:26 19.6 20.2 -110 00:00 0.0
13/08 15:25 19.6 20.2 -110 00:00 0.0
13/08 15:24 19.8 20.5 -110 00:00 0.0
13/08 15:23 19.6 20.2 -110 00:00 0.0
13/08 15:22 19.6 20.3 -110 00:00 0.0
13/08 15:20 19.8 20.5 -110 00:00 0.0
13/08 15:19 19.8 20.5 -110 00:00 0.0
13/08 15:18 19.6 20.2 -110 00:00 0.0
13/08 15:17 19.8 20.5 -110 00:00 0.0
13/08 15:16 20.0 20.7 -110 00:00 0.0
13/08 15:15 19.8 20.5 -110 00:00 0.0
13/08 15:14 19.6 20.2 -110 00:00 0.0
13/08 15:13 19.6 20.2 -110 00:00 0.0
13/08 15:12 19.4 19.9 -110.1 00:00 0.0
13/08 15:11 19.4 20 -110.1 00:00 0.0
13/08 15:10 19.4 20 -110.1 00:00 0.0
13/08 15:09 19.4 19.9 -110.1 00:00 0.0
13/08 15:08 19.2 19.7 -110.1 00:00 0.0
13/08 15:07 19.2 19.7 -110.1 00:00 0.0
13/08 15:06 19.2 19.7 -110.1 00:00 0.0
13/08 15:05 19.2 19.6 -110.1 00:00 0.0
13/08 15:04 19.2 19.6 -110.1 00:00 0.0
13/08 15:03 19.2 19.6 -110.1 00:00 0.0
13/08 15:02 19.2 19.6 -110.1 00:00 0.0
13/08 15:01 19.2 19.5 -110.1 00:00 0.0
13/08 15:00 19.2 19.5 -110.1 00:00 0.0
13/08 14:59 19.2 19.5 -110.1 00:00 0.0
13/08 14:58 19.2 19.5 -110.1 00:00 0.0
13/08 14:57 19.2 19.4 -110.1 00:00 0.0
13/08 14:56 19.2 19.4 -110.1 00:00 0.0
13/08 14:55 19.2 19.4 -110.1 00:00 0.0
13/08 14:54 19.2 19.4 -110.1 00:00 0.0
13/08 14:53 19.2 19.4 -110.1 00:00 0.0
13/08 14:52 19.2 19.4 -110.1 00:00 0.0
13/08 14:51 19.2 19.4 -110.1 00:00 0.0
13/08 14:50 19.2 19.4 -110.1 00:00 0.0
13/08 14:49 19.0 19.2 -110.1 00:00 0.0
13/08 14:48 19.0 19.2 -110.1 00:00 0.0
13/08 14:47 19.0 19.2 -110.1 00:00 0.0
13/08 14:46 19.2 19.4 -110.1 00:00 0.0
13/08 14:45 19.2 19.5 -110.1 00:00 0.0
13/08 14:44 19.2 19.5 -110.1 00:00 0.0
13/08 14:43 19.2 19.5 -110.1 00:00 0.0
13/08 14:42 19.4 19.7 -110.1 00:00 0.0
13/08 14:41 19.4 19.7 -110.1 00:00 0.0
13/08 14:40 19.4 19.7 -110.1 00:00 0.0
13/08 14:39 19.6 19.9 -110 00:00 0.0
13/08 14:38 19.6 20 -110 00:00 0.0
13/08 14:37 19.6 20 -110 00:00 0.0
13/08 14:36 19.4 19.7 -110.1 00:00 0.0
13/08 14:35 19.4 19.7 -110.1 00:00 0.0
13/08 14:34 19.6 20 -110 00:00 0.0
13/08 14:33 19.6 20 -110 00:00 0.0
13/08 14:32 19.6 20 -110 00:00 0.0
13/08 14:31 19.6 20.1 -110 00:00 0.0
13/08 14:30 19.6 20.1 -110 00:00 0.0
13/08 14:29 19.8 20.3 -110 00:00 0.0
13/08 14:28 19.6 20 -110 00:00 0.0
13/08 14:27 19.6 20 -110 00:00 0.0
13/08 14:26 19.6 20 -110 00:00 0.0
13/08 14:25 19.8 20.3 -110 00:00 0.0
13/08 14:24 19.6 20 -110 00:00 0.0
13/08 14:23 19.8 20.3 -110 00:00 0.0
13/08 14:22 19.8 20.3 -110 00:00 0.0
13/08 14:21 19.8 20.3 -110 00:00 0.0
13/08 14:20 19.8 20.3 -110 00:00 0.0
13/08 14:19 19.8 20.3 -110 00:00 0.0
13/08 14:18 19.6 20.1 -110 00:00 0.0
13/08 14:17 19.6 20.1 -110 00:00 0.0
13/08 14:16 19.6 20.1 -110 00:00 0.0
13/08 14:15 19.8 20.4 -110 00:00 0.0
13/08 14:14 19.8 20.4 -110 00:00 0.0
13/08 14:13 19.8 20.3 -110 00:00 0.0
13/08 14:12 19.6 20.1 -110 00:00 0.0
13/08 14:11 19.6 20.1 -110 00:00 0.0
13/08 14:10 19.6 20.1 -110 00:00 0.0
13/08 14:09 19.8 20.3 -110 00:00 0.0
13/08 14:08 19.8 20.3 -110 00:00 0.0
13/08 14:07 19.6 20.1 -110 00:00 0.0
13/08 14:06 19.6 20 -110 00:00 0.0
13/08 14:05 19.6 20 -110 00:00 0.0
13/08 14:04 19.4 19.8 -110.1 00:00 0.0
13/08 14:03 19.4 19.8 -110.1 00:00 0.0
13/08 14:02 19.4 19.8 -110.1 00:00 0.0
13/08 14:01 19.4 19.8 -110.1 00:00 0.0
13/08 14:00 19.4 19.8 -110.1 00:00 0.0
13/08 13:59 19.6 20.1 -110 00:00 0.0
13/08 13:58 19.4 19.8 -110.1 00:00 0.0
13/08 13:57 19.2 19.6 -110.1 00:00 0.0
13/08 13:56 19.2 19.5 -110.1 00:00 0.0
13/08 13:55 19.4 19.8 -110.1 00:00 0.0
13/08 13:54 19.2 19.5 -110.1 00:00 0.0
13/08 13:53 19.2 19.5 -110.1 00:00 0.0
13/08 13:52 19.2 19.5 -110.1 00:00 0.0
13/08 13:51 19.2 19.5 -110.1 00:00 0.0
13/08 13:50 19.2 19.5 -110.1 00:00 0.0
13/08 13:49 19.0 19.2 -110.1 00:00 0.0
13/08 13:48 19.2 19.5 -110.1 00:00 0.0
13/08 13:47 19.0 19.2 -110.1 00:00 0.0
13/08 13:46 19.0 19.2 -110.1 00:00 0.0
13/08 13:45 19.0 19.3 -110.1 00:00 0.0
13/08 13:44 19.0 19.3 -110.1 00:00 0.0



    Load Time 0.099953 seconds